Skip Navigation Links Skip Navigation Links

Current Weather

Mount Airy/Surry County, Mount Airy, N.C.

For information only: do not use for flight planning or navigation.
Latest weather
Observation time Thursday, October 18, 2018 1:40 AM EDT
Local time Thursday, October 18, 2018 1:52 AM EDT
Flight conditions Visual Meteorological Conditions
Winds
Wind direction Northwest (310°)
Wind speed 6 mph
Visibility 10 mi.
Sky condition
Ceiling unlimited
Sky clear
Temperature 55°F
Dewpoint 44°F
Altimeter 30.31 in.Hg
Derived measurements
Relative humidity 66%
Density altitude 658 ft.
Remarks
Fully automated report.
Automated weather observing station with precipitation discriminator.
METAR KMWK 180540Z AUTO 31005KT 10SM CLR 13/07 A3031 RMK AO2 T01260065

Settings

Location code

InnerDrive.Weather 4.0.6770.0 Release CLR 4.0.30319.42000
Copyright ©2018 Inner Drive Technology. All rights reserved. Portions Copyright ©1986-2018 David Braverman.

Find weather

Site navigation


Skip Navigation Links

Place info

Page info

PayPal - The safer, easier way to pay online!

Return home.

Copyright ©2018 Inner Drive Technology. Purveyors of fine, hand-crafted computer software. Page printed 2018-10-18T05:52:34 UTC.